createdAt,value
2023-05-02T00:02:03.670Z,0.70
2023-05-02T00:04:31.444Z,1.02
2023-05-02T00:06:59.344Z,1.05
2023-05-02T00:09:27.127Z,1.55
2023-05-02T00:11:54.761Z,0.93
2023-05-02T00:14:22.501Z,1.40
2023-05-02T00:16:51.519Z,0.82
2023-05-02T00:19:19.101Z,1.23
2023-05-02T00:21:48.517Z,1.20
2023-05-02T00:24:16.625Z,1.83
2023-05-02T00:26:44.536Z,0.90
2023-05-02T00:29:12.162Z,0.98
2023-05-02T00:31:41.863Z,0.98
2023-05-02T00:34:10.852Z,1.25
2023-05-02T00:36:38.515Z,1.17
2023-05-02T00:39:06.308Z,0.95
2023-05-02T00:41:33.944Z,0.98
2023-05-02T00:44:01.975Z,1.23
2023-05-02T00:46:29.730Z,1.50
2023-05-02T00:48:57.427Z,1.33
2023-05-02T00:51:27.391Z,1.00
2023-05-02T00:53:55.451Z,1.58
2023-05-02T00:56:23.064Z,1.50
2023-05-02T00:58:50.793Z,0.80
2023-05-02T01:01:34.330Z,0.77
2023-05-02T01:04:11.330Z,0.82
2023-05-02T01:06:54.272Z,1.13
2023-05-02T01:09:35.275Z,0.57
2023-05-02T01:12:07.197Z,0.75
2023-05-02T01:14:41.431Z,0.90
2023-05-02T01:17:13.093Z,1.13
2023-05-02T01:19:44.705Z,2.28
2023-05-02T01:22:15.086Z,2.22
2023-05-02T01:24:53.545Z,2.92
2023-05-02T01:27:32.008Z,2.40
2023-05-02T01:30:03.375Z,1.48
2023-05-02T01:32:34.148Z,2.00
2023-05-02T01:35:03.858Z,5.20
2023-05-02T01:37:32.742Z,7.90
2023-05-02T01:40:03.259Z,7.43
2023-05-02T01:42:33.442Z,4.97
2023-05-02T01:45:04.943Z,3.67
2023-05-02T01:47:35.235Z,3.25
2023-05-02T01:50:05.190Z,5.68
2023-05-02T01:52:33.039Z,2.47
2023-05-02T01:55:02.315Z,1.50
2023-05-02T01:57:30.750Z,1.83
2023-05-02T01:59:59.592Z,1.95
2023-05-02T02:02:30.665Z,1.50
2023-05-02T02:04:59.740Z,1.60
2023-05-02T02:07:27.406Z,1.67
2023-05-02T02:09:55.416Z,1.67
2023-05-02T02:12:28.010Z,1.15
2023-05-02T02:15:00.867Z,1.50
2023-05-02T02:17:41.457Z,1.35
2023-05-02T02:20:12.075Z,1.50
2023-05-02T02:22:42.114Z,1.08
2023-05-02T02:25:18.355Z,1.45
2023-05-02T02:27:45.965Z,1.88
2023-05-02T02:30:13.711Z,2.53
2023-05-02T02:32:42.735Z,2.47
2023-05-02T02:35:11.608Z,1.70
2023-05-02T02:37:46.852Z,1.58
2023-05-02T02:40:22.933Z,1.92
2023-05-02T02:43:00.883Z,1.67
2023-05-02T02:45:36.520Z,1.60
2023-05-02T02:48:16.486Z,1.90
2023-05-02T02:50:55.937Z,2.53
2023-05-02T02:53:28.529Z,1.80
2023-05-02T02:56:01.640Z,1.77
2023-05-02T02:58:37.199Z,1.73
2023-05-02T03:01:11.052Z,1.60
2023-05-02T03:03:43.597Z,1.65
2023-05-02T03:06:11.350Z,1.70
2023-05-02T03:08:42.459Z,1.95
2023-05-02T03:11:10.280Z,2.35
2023-05-02T03:13:38.084Z,1.85
2023-05-02T03:16:33.710Z,1.75
2023-05-02T03:19:02.957Z,1.35
2023-05-02T03:21:31.671Z,2.72
2023-05-02T03:24:00.511Z,2.38
2023-05-02T03:26:28.810Z,1.85
2023-05-02T03:28:57.301Z,1.38
2023-05-02T03:31:26.676Z,1.65
2023-05-02T03:33:54.387Z,1.65
2023-05-02T03:36:23.430Z,2.08
2023-05-02T03:38:51.099Z,0.90
2023-05-02T03:41:20.799Z,1.80
2023-05-02T03:43:48.399Z,2.17
2023-05-02T03:46:16.087Z,1.83
2023-05-02T03:48:46.326Z,2.63
2023-05-02T03:51:13.936Z,2.60
2023-05-02T03:53:42.945Z,2.08
2023-05-02T03:56:10.645Z,4.00
2023-05-02T03:58:38.350Z,1.75
2023-05-02T04:01:14.969Z,1.92
2023-05-02T04:03:42.835Z,1.73
2023-05-02T04:06:10.693Z,1.67
2023-05-02T04:08:38.399Z,2.00
2023-05-02T04:11:07.361Z,1.77
2023-05-02T04:13:35.023Z,1.60
2023-05-02T04:16:02.672Z,1.85
2023-05-02T04:18:30.968Z,2.30
2023-05-02T04:20:58.602Z,2.20
2023-05-02T04:23:26.149Z,1.60
2023-05-02T04:25:54.659Z,1.80
2023-05-02T04:28:23.948Z,1.85
2023-05-02T04:30:52.041Z,1.83
2023-05-02T04:33:20.109Z,2.03
2023-05-02T04:35:47.700Z,2.28
2023-05-02T04:38:15.682Z,2.05
2023-05-02T04:40:43.407Z,2.17
2023-05-02T04:43:11.057Z,1.60
2023-05-02T04:45:40.078Z,1.75
2023-05-02T04:48:07.747Z,1.70
2023-05-02T04:50:35.437Z,2.00
2023-05-02T04:53:03.007Z,1.55
2023-05-02T04:55:30.563Z,2.08
2023-05-02T04:57:58.222Z,1.75
2023-05-02T05:00:25.768Z,1.70
2023-05-02T05:02:55.135Z,2.20
2023-05-02T05:05:22.850Z,1.83
2023-05-02T05:07:52.414Z,2.65
2023-05-02T05:10:20.077Z,2.38
2023-05-02T05:12:49.229Z,2.00
2023-05-02T05:15:16.967Z,1.92
2023-05-02T05:17:44.863Z,1.90
2023-05-02T05:20:14.885Z,1.33
2023-05-02T05:22:42.819Z,1.45
2023-05-02T05:25:11.286Z,1.80
2023-05-02T05:27:39.647Z,1.95
2023-05-02T05:30:08.810Z,2.70
2023-05-02T05:32:36.776Z,2.10
2023-05-02T05:35:05.465Z,1.88
2023-05-02T05:37:36.852Z,2.05
2023-05-02T05:40:04.967Z,1.35
2023-05-02T05:42:32.601Z,2.17
2023-05-02T05:45:00.181Z,2.45
2023-05-02T05:47:28.220Z,2.30
2023-05-02T05:49:56.821Z,1.80
2023-05-02T05:52:24.531Z,1.45
2023-05-02T05:54:56.666Z,1.60
2023-05-02T05:57:24.828Z,1.65
2023-05-02T05:59:52.506Z,1.98
2023-05-02T06:02:20.519Z,1.63
2023-05-02T06:04:48.174Z,2.17
2023-05-02T06:07:16.055Z,1.27
2023-05-02T06:09:43.694Z,1.80
2023-05-02T06:12:12.579Z,1.85
2023-05-02T06:14:40.149Z,2.05
2023-05-02T06:17:08.170Z,1.75
2023-05-02T06:19:35.809Z,2.47
2023-05-02T06:22:03.364Z,1.25
2023-05-02T06:24:30.985Z,1.55
2023-05-02T06:26:59.649Z,1.65
2023-05-02T06:29:28.608Z,1.88
2023-05-02T06:31:56.668Z,1.73
2023-05-02T06:34:24.275Z,2.05
2023-05-02T06:36:55.941Z,1.73
2023-05-02T06:39:23.587Z,2.00
2023-05-02T06:41:51.146Z,2.53
2023-05-02T06:44:18.740Z,2.38
2023-05-02T06:46:47.829Z,2.25
2023-05-02T06:49:15.515Z,1.85
2023-05-02T06:51:43.466Z,1.48
2023-05-02T06:54:11.364Z,1.92
2023-05-02T06:56:39.077Z,2.88
2023-05-02T06:59:06.672Z,2.50
2023-05-02T07:01:34.291Z,1.92
2023-05-02T07:04:04.337Z,3.47
2023-05-02T07:06:32.259Z,2.45
2023-05-02T07:08:59.856Z,2.53
2023-05-02T07:11:28.009Z,2.42
2023-05-02T07:13:55.631Z,1.85
2023-05-02T07:16:23.450Z,2.15
2023-05-02T07:18:51.057Z,1.98
2023-05-02T07:21:20.068Z,2.13
2023-05-02T07:23:47.607Z,2.42
2023-05-02T07:26:15.225Z,2.40
2023-05-02T07:28:42.907Z,1.58
2023-05-02T07:31:10.623Z,1.63
2023-05-02T07:33:38.154Z,1.27
2023-05-02T07:36:06.277Z,2.17
2023-05-02T07:38:35.189Z,2.10
2023-05-02T07:41:02.850Z,1.58
2023-05-02T07:43:30.472Z,1.63
2023-05-02T07:45:58.294Z,1.83
2023-05-02T07:48:27.805Z,1.60
2023-05-02T07:50:55.792Z,2.05
2023-05-02T07:53:23.420Z,1.55
2023-05-02T07:55:52.471Z,1.77
2023-05-02T07:58:20.275Z,1.58
2023-05-02T08:00:48.108Z,1.65
2023-05-02T08:03:15.789Z,1.35
2023-05-02T08:05:43.506Z,1.33
2023-05-02T08:08:11.061Z,1.90
2023-05-02T08:10:38.662Z,3.10
2023-05-02T08:13:07.617Z,2.30
2023-05-02T08:15:35.201Z,1.88
2023-05-02T08:18:02.949Z,2.03
2023-05-02T08:20:30.749Z,2.13
2023-05-02T08:22:59.968Z,1.60
2023-05-02T08:25:27.888Z,2.20
2023-05-02T08:27:55.793Z,1.83
2023-05-02T08:30:24.713Z,1.67
2023-05-02T08:32:52.368Z,1.17
2023-05-02T08:35:20.010Z,1.40
2023-05-02T08:37:47.557Z,1.73
2023-05-02T08:40:16.059Z,2.40
2023-05-02T08:42:46.323Z,1.75
2023-05-02T08:45:16.784Z,1.52
2023-05-02T08:47:47.991Z,1.38
2023-05-02T08:50:18.622Z,1.80
2023-05-02T08:52:47.973Z,1.85
2023-05-02T08:55:16.015Z,1.73
2023-05-02T08:57:44.597Z,2.53
2023-05-02T09:00:13.631Z,1.63
2023-05-02T09:02:53.519Z,1.88
2023-05-02T09:05:24.745Z,2.25
2023-05-02T09:07:53.036Z,1.38
2023-05-02T09:10:22.548Z,1.52
2023-05-02T09:12:50.242Z,1.48
2023-05-02T09:15:20.790Z,1.35
2023-05-02T09:17:50.334Z,1.83
2023-05-02T09:20:18.179Z,1.73
2023-05-02T09:22:50.632Z,1.77
2023-05-02T09:25:18.695Z,1.70
2023-05-02T09:27:54.513Z,1.85
2023-05-02T09:30:25.278Z,1.58
2023-05-02T09:32:55.863Z,1.33
2023-05-02T09:35:24.597Z,0.73
2023-05-02T09:37:53.619Z,1.73
2023-05-02T09:40:21.452Z,1.95
2023-05-02T09:42:49.041Z,1.85
2023-05-02T09:45:22.472Z,1.90
2023-05-02T09:47:50.354Z,2.20
2023-05-02T09:50:36.028Z,1.30
2023-05-02T09:53:08.335Z,1.13
2023-05-02T09:55:36.951Z,1.50
2023-05-02T09:58:04.692Z,1.83
2023-05-02T10:00:43.327Z,1.17
2023-05-02T10:03:11.633Z,1.63
2023-05-02T10:05:41.056Z,2.20
2023-05-02T10:08:10.271Z,1.90
2023-05-02T10:10:39.004Z,1.85
2023-05-02T10:13:08.372Z,1.50
2023-05-02T10:15:43.285Z,2.25
2023-05-02T10:18:15.210Z,1.92
2023-05-02T10:20:52.102Z,1.92
2023-05-02T10:23:21.026Z,1.70
2023-05-02T10:25:49.493Z,1.88
2023-05-02T10:28:17.636Z,2.00
2023-05-02T10:30:45.886Z,2.40
2023-05-02T10:33:15.043Z,2.22
2023-05-02T10:35:46.806Z,1.33
2023-05-02T10:38:19.173Z,2.92
2023-05-02T10:40:56.898Z,1.88
2023-05-02T10:43:27.242Z,1.70
2023-05-02T10:45:55.957Z,1.38
2023-05-02T10:48:26.537Z,2.60
2023-05-02T10:50:57.576Z,1.90
2023-05-02T10:53:30.069Z,1.67
2023-05-02T10:56:18.708Z,1.38
2023-05-02T10:58:48.809Z,1.67
2023-05-02T11:01:39.939Z,1.42
2023-05-02T11:04:09.392Z,1.40
2023-05-02T11:06:59.544Z,1.33
2023-05-02T11:12:05.633Z,1.20
2023-05-02T11:14:51.353Z,1.65
2023-05-02T11:17:19.826Z,1.42
2023-05-02T11:20:29.034Z,1.38
2023-05-02T11:23:22.725Z,1.90
2023-05-02T11:25:51.081Z,1.60
2023-05-02T11:28:41.855Z,1.70
2023-05-02T11:31:10.810Z,2.17
2023-05-02T11:33:38.434Z,2.47
2023-05-02T11:36:06.373Z,1.65
2023-05-02T11:38:39.553Z,1.50
2023-05-02T11:41:07.184Z,2.13
2023-05-02T11:43:34.828Z,1.35
2023-05-02T11:46:03.447Z,1.50
2023-05-02T11:48:32.256Z,1.42
2023-05-02T11:51:05.010Z,1.58
2023-05-02T11:53:33.336Z,1.83
2023-05-02T11:56:05.366Z,1.60
2023-05-02T11:58:34.169Z,1.33
2023-05-02T12:01:13.484Z,0.98
2023-05-02T12:03:41.780Z,1.65
2023-05-02T12:06:12.064Z,1.50
2023-05-02T12:08:40.927Z,1.48
2023-05-02T12:11:10.216Z,1.90
2023-05-02T12:13:45.981Z,1.60
2023-05-02T12:16:13.853Z,1.38
2023-05-02T12:18:41.870Z,1.55
2023-05-02T12:21:10.642Z,1.30
2023-05-02T12:23:38.512Z,1.55
2023-05-02T12:26:19.521Z,1.52
2023-05-02T12:28:51.317Z,3.38
2023-05-02T12:31:19.166Z,1.23
2023-05-02T12:33:50.176Z,1.38
2023-05-02T12:36:18.386Z,1.90
2023-05-02T12:38:51.025Z,1.20
2023-05-02T12:41:20.795Z,1.15
2023-05-02T12:43:51.178Z,1.63
2023-05-02T12:46:18.874Z,1.13
2023-05-02T12:48:46.834Z,1.45
2023-05-02T12:51:24.657Z,1.17
2023-05-02T12:53:52.276Z,1.42
2023-05-02T12:56:22.078Z,1.75
2023-05-02T12:58:50.773Z,1.40
2023-05-02T13:01:18.383Z,1.42
2023-05-02T13:03:46.129Z,1.42
2023-05-02T13:06:13.761Z,1.45
2023-05-02T13:08:41.507Z,1.30
2023-05-02T13:11:09.121Z,2.05
2023-05-02T13:13:38.130Z,1.75
2023-05-02T13:16:06.241Z,1.10
2023-05-02T13:18:33.979Z,1.33
2023-05-02T13:21:01.652Z,1.40
2023-05-02T13:23:29.242Z,1.35
2023-05-02T13:25:56.856Z,1.25
2023-05-02T13:28:25.740Z,1.40
2023-05-02T13:30:54.713Z,1.65
2023-05-02T13:33:22.353Z,2.00
2023-05-02T13:35:49.925Z,1.20
2023-05-02T13:38:17.468Z,1.80
2023-05-02T13:40:45.056Z,1.48
2023-05-02T13:43:12.713Z,1.60
2023-05-02T13:45:40.450Z,1.50
2023-05-02T13:48:09.393Z,1.90
2023-05-02T13:50:38.333Z,1.35
2023-05-02T13:53:06.067Z,1.80
2023-05-02T13:55:33.726Z,1.60
2023-05-02T13:58:01.423Z,1.73
2023-05-02T14:00:29.258Z,1.58
2023-05-02T14:02:56.896Z,1.95
2023-05-02T14:05:26.075Z,2.20
2023-05-02T14:07:53.665Z,1.63
2023-05-02T14:10:21.251Z,1.70
2023-05-02T14:12:49.234Z,1.33
2023-05-02T14:15:17.085Z,1.83
2023-05-02T14:17:44.665Z,2.08
2023-05-02T14:20:12.868Z,1.38
2023-05-02T14:22:41.847Z,1.77
2023-05-02T14:25:09.620Z,2.15
2023-05-02T14:27:37.256Z,1.33
2023-05-02T14:30:05.560Z,1.52
2023-05-02T14:32:33.865Z,1.38
2023-05-02T14:35:01.679Z,1.48
2023-05-02T14:37:29.244Z,1.65
2023-05-02T14:39:59.156Z,1.40
2023-05-02T14:42:27.187Z,1.17
2023-05-02T14:44:55.348Z,1.30
2023-05-02T14:47:25.344Z,1.50
2023-05-02T14:49:52.905Z,1.73
2023-05-02T14:52:20.679Z,2.00
2023-05-02T14:54:48.292Z,2.10
2023-05-02T14:57:25.189Z,3.50
2023-05-02T14:59:52.859Z,6.30
2023-05-02T15:02:21.851Z,3.00
2023-05-02T15:04:49.862Z,1.95
2023-05-02T15:07:17.953Z,2.83
2023-05-02T15:09:45.649Z,2.35
2023-05-02T15:12:13.305Z,2.58
2023-05-02T15:14:42.359Z,4.55
2023-05-02T15:17:10.101Z,2.97
2023-05-02T15:19:37.895Z,2.55
2023-05-02T15:22:05.553Z,3.47
2023-05-02T15:24:33.311Z,2.42
2023-05-02T15:27:01.705Z,3.72
2023-05-02T15:29:29.413Z,4.53
2023-05-02T15:31:58.510Z,4.75
2023-05-02T15:34:26.224Z,6.95
2023-05-02T15:36:56.114Z,2.28
2023-05-02T15:39:26.252Z,3.50
2023-05-02T15:41:53.944Z,2.70
2023-05-02T15:44:21.663Z,2.45
2023-05-02T15:46:49.488Z,5.15
2023-05-02T15:49:18.710Z,3.75
2023-05-02T15:51:46.315Z,2.70
2023-05-02T15:54:13.889Z,3.72
2023-05-02T15:56:41.568Z,3.92
2023-05-02T15:59:09.416Z,3.30
2023-05-02T16:01:37.075Z,2.25
2023-05-02T16:04:06.759Z,5.05
2023-05-02T16:06:36.246Z,30.75
2023-05-02T16:09:05.388Z,8.35
2023-05-02T16:11:33.073Z,6.45
2023-05-02T16:14:01.185Z,4.05
2023-05-02T16:16:29.276Z,3.47
2023-05-02T16:18:56.903Z,3.42
2023-05-02T16:21:25.761Z,2.97
2023-05-02T16:23:54.964Z,3.13
2023-05-02T16:26:22.627Z,3.70
2023-05-02T16:28:50.321Z,4.13
2023-05-02T16:31:17.896Z,8.32
2023-05-02T16:33:45.656Z,124.80
2023-05-02T16:36:14.548Z,63.53
2023-05-02T16:38:42.298Z,77.00
2023-05-02T16:41:11.977Z,66.80
2023-05-02T16:43:39.642Z,61.13
2023-05-02T16:46:08.157Z,99.15
2023-05-02T16:48:35.954Z,84.97
2023-05-02T16:51:04.425Z,99.20
2023-05-02T16:53:32.745Z,109.43
2023-05-02T16:56:00.453Z,97.72
2023-05-02T16:58:29.990Z,112.90
2023-05-02T17:00:59.552Z,111.72
2023-05-02T17:03:27.755Z,99.80
2023-05-02T17:05:58.718Z,104.78
2023-05-02T17:08:26.671Z,78.15
2023-05-02T17:10:54.356Z,85.55
2023-05-02T17:13:21.947Z,80.00
2023-05-02T17:15:51.127Z,85.03
2023-05-02T17:18:18.688Z,78.93
2023-05-02T17:20:47.627Z,77.78
2023-05-02T17:23:15.670Z,81.38
2023-05-02T17:25:43.310Z,97.63
2023-05-02T17:28:11.172Z,78.40
2023-05-02T17:30:38.797Z,88.60
2023-05-02T17:33:07.924Z,63.47
2023-05-02T17:35:35.590Z,87.25
2023-05-02T17:38:03.174Z,58.67
2023-05-02T17:40:30.796Z,61.65
2023-05-02T17:42:59.177Z,84.80
2023-05-02T17:45:29.416Z,87.15
2023-05-02T17:47:57.091Z,66.10
2023-05-02T17:50:26.230Z,69.03
2023-05-02T17:52:54.038Z,34.83
2023-05-02T17:55:21.782Z,40.90
2023-05-02T17:57:49.372Z,38.25
2023-05-02T18:00:18.706Z,35.10
2023-05-02T18:02:46.334Z,35.67
2023-05-02T18:05:14.204Z,34.85
2023-05-02T18:07:43.113Z,37.05
2023-05-02T18:10:11.017Z,34.10
2023-05-02T18:12:38.650Z,30.35
2023-05-02T18:15:09.000Z,31.10
2023-05-02T18:17:37.263Z,26.15
2023-05-02T18:20:20.676Z,23.22
2023-05-02T18:22:49.667Z,40.50
2023-05-02T18:25:17.311Z,32.47
2023-05-02T18:27:45.018Z,28.25
2023-05-02T18:30:13.043Z,26.98
2023-05-02T18:32:40.736Z,29.05
2023-05-02T18:35:10.392Z,22.10
2023-05-02T18:37:38.098Z,26.17
2023-05-02T18:40:08.979Z,20.45
2023-05-02T18:42:36.680Z,24.77
2023-05-02T18:45:05.877Z,23.92
2023-05-02T18:47:33.827Z,20.00
2023-05-02T18:50:01.572Z,19.55
2023-05-02T18:52:30.395Z,22.33
2023-05-02T18:54:58.150Z,24.67
2023-05-02T18:57:27.297Z,22.45
2023-05-02T18:59:55.101Z,23.15
2023-05-02T19:02:22.890Z,22.52
2023-05-02T19:04:50.658Z,19.50
2023-05-02T19:07:18.341Z,19.55
2023-05-02T19:09:45.972Z,23.33
2023-05-02T19:12:13.578Z,23.52
2023-05-02T19:14:42.638Z,19.52
2023-05-02T19:17:10.239Z,16.67
2023-05-02T19:19:37.918Z,15.13
2023-05-02T19:22:05.573Z,15.98
2023-05-02T19:24:33.591Z,13.15
2023-05-02T19:27:01.228Z,11.88
2023-05-02T19:29:29.025Z,14.52
2023-05-02T19:31:58.004Z,12.93
2023-05-02T19:34:25.943Z,14.95
2023-05-02T19:36:53.508Z,14.00
2023-05-02T19:39:21.513Z,14.00
2023-05-02T19:41:49.930Z,12.52
2023-05-02T19:44:17.981Z,13.95
2023-05-02T19:46:46.016Z,20.50
2023-05-02T19:49:15.138Z,16.30
2023-05-02T19:51:42.781Z,14.73
2023-05-02T19:54:10.372Z,12.75
2023-05-02T19:56:38.048Z,12.18
2023-05-02T19:59:05.701Z,12.77
2023-05-02T20:01:33.650Z,10.70
2023-05-02T20:04:01.472Z,12.35
2023-05-02T20:06:31.928Z,11.90
2023-05-02T20:08:59.644Z,9.45
2023-05-02T20:11:27.318Z,39.92
2023-05-02T20:13:55.347Z,8.93
2023-05-02T20:16:23.060Z,10.25
2023-05-02T20:18:51.093Z,8.35
2023-05-02T20:21:18.805Z,8.75
2023-05-02T20:23:47.888Z,10.70
2023-05-02T20:26:17.124Z,11.05
2023-05-02T20:28:44.849Z,8.80
2023-05-02T20:31:12.706Z,8.25
2023-05-02T20:33:45.110Z,13.05
2023-05-02T20:36:14.791Z,13.45
2023-05-02T20:38:44.530Z,9.20
2023-05-02T20:41:13.957Z,12.18
2023-05-02T20:43:44.585Z,11.13
2023-05-02T20:46:13.350Z,13.07
2023-05-02T20:48:41.017Z,11.75
2023-05-02T20:51:08.818Z,12.30
2023-05-02T20:53:36.833Z,10.32
2023-05-02T20:56:04.825Z,8.68
2023-05-02T20:58:33.938Z,7.78
2023-05-02T21:01:01.635Z,11.85
2023-05-02T21:03:29.372Z,9.88
2023-05-02T21:05:59.427Z,9.25
2023-05-02T21:08:27.073Z,7.53
2023-05-02T21:10:54.762Z,9.40
2023-05-02T21:13:22.779Z,9.82
2023-05-02T21:15:51.777Z,7.22
2023-05-02T21:18:19.407Z,8.55
2023-05-02T21:20:49.847Z,9.38
2023-05-02T21:23:17.521Z,8.60
2023-05-02T21:25:45.229Z,8.40
2023-05-02T21:28:12.996Z,8.00
2023-05-02T21:30:40.602Z,8.75
2023-05-02T21:33:10.351Z,7.40
2023-05-02T21:35:38.168Z,8.85
2023-05-02T21:38:05.849Z,5.68
2023-05-02T21:40:35.719Z,8.68
2023-05-02T21:43:03.278Z,6.63
2023-05-02T21:45:31.093Z,6.50
2023-05-02T21:47:58.777Z,6.05
2023-05-02T21:50:29.256Z,6.88
2023-05-02T21:52:56.800Z,6.50
2023-05-02T21:55:24.542Z,6.57
2023-05-02T21:57:52.154Z,5.43
2023-05-02T22:00:19.869Z,6.65
2023-05-02T22:02:47.754Z,5.78
2023-05-02T22:05:16.458Z,6.55
2023-05-02T22:07:45.466Z,7.35
2023-05-02T22:10:13.172Z,7.68
2023-05-02T22:12:40.926Z,7.93
2023-05-02T22:15:09.684Z,5.97
2023-05-02T22:17:37.440Z,7.07
2023-05-02T22:20:09.990Z,6.82
2023-05-02T22:22:37.628Z,7.20
2023-05-02T22:25:07.290Z,7.07
2023-05-02T22:27:35.103Z,6.40
2023-05-02T22:30:03.230Z,6.10
2023-05-02T22:32:31.100Z,5.82
2023-05-02T22:34:58.711Z,4.53
2023-05-02T22:37:26.276Z,6.15
2023-05-02T22:39:54.470Z,4.78
2023-05-02T22:42:24.673Z,5.30
2023-05-02T22:44:54.413Z,5.35
2023-05-02T22:47:22.966Z,4.97
2023-05-02T22:49:50.957Z,5.03
2023-05-02T22:52:20.449Z,5.13
2023-05-02T22:54:48.174Z,6.25
2023-05-02T22:57:15.956Z,4.13
2023-05-02T22:59:44.994Z,4.55
2023-05-02T23:02:13.427Z,4.15
2023-05-02T23:04:41.234Z,3.55
2023-05-02T23:07:08.848Z,4.70
2023-05-02T23:09:36.508Z,4.93
2023-05-02T23:12:05.529Z,6.13
2023-05-02T23:14:33.218Z,4.97
2023-05-02T23:17:03.913Z,5.30
2023-05-02T23:19:31.500Z,4.07
2023-05-02T23:21:59.769Z,4.03
2023-05-02T23:24:27.355Z,5.35
2023-05-02T23:26:55.266Z,4.25
2023-05-02T23:29:22.901Z,4.93
2023-05-02T23:31:52.376Z,3.90
2023-05-02T23:34:21.804Z,3.78
2023-05-02T23:36:50.026Z,4.72
2023-05-02T23:39:17.865Z,4.78
2023-05-02T23:41:45.681Z,3.30
2023-05-02T23:44:13.279Z,4.80
2023-05-02T23:46:40.846Z,5.85
2023-05-02T23:49:08.585Z,5.10
2023-05-02T23:51:37.838Z,3.83
2023-05-02T23:54:07.200Z,4.95
2023-05-02T23:56:34.902Z,4.82
2023-05-02T23:59:02.738Z,3.92
